Terminal Aerodrome Forecast
Issued by NWS

Home | Current Version | Previous Version | Text Only | Print | Product List | Glossary Off
Versions: 1 2 3 4 5 6 7 8 9 10 11 12 13

000
FTUS43 KGRB 061133
TAFATW
TAF
KATW 061133Z 0612/0712 18006KT 6SM HZ SCT100 OVC200 WS010/22030KT
     FM061400 18010G17KT 6SM HZ SCT040 BKN100
      TEMPO 0616/0620 4SM -TSRA BR BKN040CB
     FM062000 17012G20KT P6SM SCT040 BKN100
      TEMPO 0622/0702 1SM +TSRA OVC017CB
     FM070200 VRB03KT 5SM SHRA BR SCT011 BKN025
     FM070500 35009KT 6SM -SHRA BKN011 OVC020
     FM070900 36013G20KT P6SM SCT014 OVC030=

USA.gov is the U.S. government's official web portal to all federal, state and local government web resources and services.